M I D A S
Marine Information and Data Acquisition System
Tripno 2307 of the Zeeleeuw from 2012-05-04 07:47:58 to 2012-05-04 12:19:55
Back to CruiseResearch ActivitiesStationsMapUnderway DataData graphs

EquipmentUnitsComment
TimeDGPSUTC
LatitudeDGPSDM.mWGS84
LongitudeDGPSDM.mWGS84
TemperatureSBE03/SBE38deg celciusITS90
ConductivitySBE21S/mITS90
SalinitySBE21 Practical Salinity Units
ChlorophylAChelsea fluorimeterg/lCalibrated in Aceton
Missing or incorrect values are displayed as -999
Sea surface data collected by the RV Zeeleeuw from 2012-05-04 07:44:51 to 2012-05-04 12:28:01
Time Latitude Longitude Temperature Conductivity Salinity ChlorophylA
2012-05-04 07:45:56 51°13.645 2°55.941 18.7326 0.070263 0.345784 -2.458615
2012-05-04 07:46:56 51°13.677 2°55.835 18.7498 0.070263 0.345805 -2.458615
2012-05-04 07:47:56 51°13.721 2°55.742 18.7409 0.070263 0.345805 -2.458615
2012-05-04 07:48:56 51°13.767 2°55.698 18.7465 0.070263 0.3458 -2.458615
2012-05-04 07:49:56 51°13.831 2°55.642 18.7167 0.070366 0.346304 -2.458615
2012-05-04 07:50:56 51°13.903 2°55.594 18.7576 0.070366 0.346304 -2.458615
2012-05-04 07:51:56 51°13.953 2°55.596 18.0633 0.070366 0.346315 -2.458615
2012-05-04 07:52:56 51°13.982 2°55.616 18.4172 0.070366 0.346304 -2.458615
2012-05-04 07:53:56 51°13.985 2°55.569 18.4249 0.070366 0.346315 -2.458615
2012-05-04 07:54:56 51°14.049 2°55.498 18.4179 0.070366 0.34631 -2.458615
2012-05-04 07:55:56 51°14.172 2°55.386 18.4334 0.070366 0.346304 -2.458615
2012-05-04 07:56:56 51°14.318 2°55.25 18.4411 0.070366 0.346336 -2.458615
2012-05-04 07:57:56 51°14.478 2°55.086 18.4642 0.070366 0.346342 -2.458615
2012-05-04 07:58:56 51°14.623 2°54.876 18.4652 0.070263 0.345826 -2.458615
2012-05-04 07:59:55 51°14.639 2°54.573 18.4673 0.070366 0.346363 -2.458615
2012-05-04 08:00:53 51°14.531 2°54.302 18.505 0.070366 0.346373 -2.458615
2012-05-04 08:01:52 51°14.404 2°54.039 18.5128 0.070263 0.345673 -2.458615
2012-05-04 08:02:52 51°14.28 2°53.767 18.5072 0.070263 0.345874 -2.458615
2012-05-04 08:03:52 51°14.137 2°53.522 18.544 0.070263 0.346001 -2.458615
2012-05-04 08:04:53 51°13.999 2°53.265 18.5453 0.070263 0.346139 -2.458615
2012-05-04 08:05:52 51°13.874 2°53.003 18.5518 0.070161 0.345729 -2.458615
2012-05-04 08:06:52 51°13.758 2°52.724 18.5826 0.070161 0.34584 -2.458615
2012-05-04 08:07:52 51°13.646 2°52.44 18.5856 0.070058 0.345446 -2.458615
2012-05-04 08:08:53 51°13.526 2°52.158 18.6135 0.070058 0.345583 -2.458615
2012-05-04 08:09:52 51°13.402 2°51.893 18.6184 0.069955 0.345194 -2.458615
2012-05-04 08:10:52 51°13.282 2°51.618 18.6564 0.069955 0.345342 -2.458615
2012-05-04 08:11:52 51°13.168 2°51.336 18.647 0.069955 0.34548 -2.458615
2012-05-04 08:12:52 51°13.057 2°51.052 18.6744 0.069852 0.34509 -2.458615
2012-05-04 08:13:52 51°12.943 2°50.768 18.6929 0.069852 0.345228 -2.458615
2012-05-04 08:14:52 51°12.842 2°50.471 18.7168 0.069749 0.344859 -2.458615
2012-05-04 08:15:52 51°12.743 2°50.171 18.6907 0.069749 0.345019 -2.458615
2012-05-04 08:16:52 51°12.63 2°49.886 18.7126 0.069749 0.345151 -2.458615
2012-05-04 08:17:52 51°12.52 2°49.599 18.7601 0.069647 0.344782 -2.458615
2012-05-04 08:18:52 51°12.408 2°49.315 18.7683 0.069647 0.34492 -2.458615
2012-05-04 08:19:52 51°12.309 2°49.024 18.7689 0.069544 0.344572 -2.458615
2012-05-04 08:20:52 51°12.205 2°48.738 18.8087 0.069544 0.344721 -2.458615
2012-05-04 08:21:53 51°12.095 2°48.452 18.8156 0.069544 0.344881 -2.458615
2012-05-04 08:22:53 51°11.98 2°48.179 18.8221 0.069441 0.344495 -2.458615
2012-05-04 08:23:52 51°11.887 2°47.892 18.8604 0.069441 0.344649 -2.458615
2012-05-04 08:24:52 51°11.807 2°47.589 18.8535 0.069338 0.344311 -2.458615
2012-05-04 08:25:52 51°11.72 2°47.292 18.8794 0.069338 0.344417 -2.458615
2012-05-04 08:26:53 51°11.625 2°46.998 18.9049 0.069235 0.343988 -2.458615
2012-05-04 08:27:52 51°11.528 2°46.724 18.8965 0.069235 0.344094 -2.458615
2012-05-04 08:28:52 51°11.429 2°46.448 18.9266 0.069133 0.343665 -2.458615
2012-05-04 08:29:53 51°11.33 2°46.166 18.9511 0.069133 0.343776 -2.458615
2012-05-04 08:30:53 51°11.246 2°45.878 18.9618 0.06903 0.343394 -2.458615
2012-05-04 08:31:53 51°11.158 2°45.593 18.9777 0.06903 0.343565 -2.458615
2012-05-04 08:32:52 51°11.071 2°45.315 18.9991 0.068927 0.34323 -2.458615
2012-05-04 08:33:52 51°10.987 2°45.03 19.0192 0.068927 0.343439 -2.458615
2012-05-04 08:34:52 51°10.901 2°44.747 19.0262 0.068824 0.343157 -2.458615
2012-05-04 08:35:52 51°10.83 2°44.456 19.0709 0.068824 0.343435 -2.458615
2012-05-04 08:36:53 51°10.755 2°44.164 19.0514 0.068824 0.343558 -2.458615
2012-05-04 08:37:52 51°10.667 2°43.894 19.0623 0.068721 0.34318 -2.458615
2012-05-04 08:38:52 51°10.577 2°43.623 19.0595 0.068721 0.343368 -2.458615
2012-05-04 08:39:52 51°10.512 2°43.337 19.1117 0.068721 0.343609 -2.458615
2012-05-04 08:40:52 51°10.455 2°43.051 19.119 0.068619 0.343322 -2.458615
2012-05-04 08:41:52 51°10.389 2°42.768 19.1163 0.068619 0.343634 -2.458615
2012-05-04 08:42:53 51°10.332 2°42.477 19.1617 0.068619 0.343903 -2.458615
2012-05-04 08:43:52 51°10.237 2°42.226 19.1389 0.068619 0.344119 -2.458615
2012-05-04 08:44:52 51°10.123 2°41.988 19.1806 0.068516 0.34381 -2.458615
2012-05-04 08:45:52 51°10.014 2°41.748 19.1756 0.068516 0.343982 -2.458615
2012-05-04 08:46:52 51°9.918 2°41.494 19.1696 0.068516 0.344204 -2.458615
2012-05-04 08:47:52 51°9.854 2°41.299 19.2349 0.068413 0.343916 -2.458615
2012-05-04 08:48:52 51°9.848 2°41.205 19.2353 0.068413 0.344171 -2.458615
2012-05-04 08:49:52 51°9.84 2°41.142 19.2326 0.068413 0.344372 -2.458615
2012-05-04 08:50:53 51°9.826 2°41.103 19.2817 0.06831 0.343991 -2.458615
2012-05-04 08:51:52 51°9.816 2°41.076 19.2676 0.06831 0.344138 -2.458615
2012-05-04 08:52:52 51°9.812 2°41.052 19.2774 0.06831 0.344263 -2.458615
2012-05-04 08:53:53 51°9.8 2°40.986 19.3004 0.068207 0.34385 -2.458615
2012-05-04 08:54:52 51°9.796 2°40.883 19.3169 0.068207 0.343953 -2.458615
2012-05-04 08:55:52 51°9.8 2°40.78 19.3192 0.068207 0.344051 -2.458615
2012-05-04 08:56:53 51°9.812 2°40.686 19.3472 0.068105 0.343626 -2.458615
2012-05-04 08:57:52 51°9.812 2°40.6 19.3606 0.068105 0.343735 -2.458615
2012-05-04 08:58:53 51°9.79 2°40.521 19.3654 0.068105 0.343817 -2.458615
2012-05-04 08:59:52 51°9.765 2°40.44 19.3844 0.068105 0.343909 -2.458615
2012-05-04 09:00:52 51°9.744 2°40.354 19.397 0.068105 0.344002 -2.458615
2012-05-04 09:01:52 51°9.72 2°40.269 19.4215 0.068002 0.343538 -2.458615
2012-05-04 09:02:52 51°9.69 2°40.189 19.4128 0.068002 0.343593 -2.458615
2012-05-04 09:03:52 51°9.655 2°40.114 19.4308 0.068002 0.343691 -2.458615
2012-05-04 09:04:53 51°9.62 2°40.037 19.44 0.067899 0.343254 -2.458615
2012-05-04 09:05:53 51°9.588 2°39.958 19.4697 0.067899 0.34333 -2.458615
2012-05-04 09:06:52 51°9.562 2°39.879 19.4739 0.067899 0.343434 -2.458615
2012-05-04 09:07:52 51°9.534 2°39.798 19.4842 0.067899 0.343538 -2.458615
2012-05-04 09:08:52 51°9.503 2°39.72 19.4999 0.067899 0.343631 -2.458615
2012-05-04 09:09:52 51°9.47 2°39.644 19.5122 0.067796 0.343172 -2.458615
2012-05-04 09:10:52 51°9.437 2°39.569 19.5228 0.067796 0.343237 -2.458615
2012-05-04 09:11:52 51°9.406 2°39.493 19.5343 0.067796 0.34333 -2.458615
2012-05-04 09:12:52 51°9.378 2°39.414 19.5448 0.067796 0.343417 -2.458615
2012-05-04 09:13:53 51°9.357 2°39.332 19.5464 0.067796 0.34351 -2.458615
2012-05-04 09:14:53 51°9.364 2°39.246 19.5679 0.067693 0.343062 -2.458615
2012-05-04 09:15:52 51°9.393 2°39.17 19.5695 0.067693 0.343144 -2.458615
2012-05-04 09:16:52 51°9.45 2°39.122 19.5868 0.067693 0.343231 -2.458615
2012-05-04 09:17:53 51°9.523 2°39.119 19.5959 0.067693 0.343319 -2.458615
2012-05-04 09:18:52 51°9.572 2°39.165 19.6137 0.067591 0.342859 -2.458615
2012-05-04 09:19:52 51°9.601 2°39.242 19.6143 0.067591 0.342952 -2.458615
2012-05-04 09:20:52 51°9.609 2°39.331 19.6161 0.067591 0.343023 -2.458615
2012-05-04 09:21:52 51°9.583 2°39.411 19.64 0.067591 0.343083 -2.458615
2012-05-04 09:22:52 51°9.549 2°39.42 19.6577 0.067591 0.343143 -2.458615
2012-05-04 09:23:53 51°9.492 2°39.331 19.6533 0.067488 0.342677 -2.458615
2012-05-04 09:24:52 51°9.435 2°39.209 19.6681 0.067488 0.342754 -2.458615
2012-05-04 09:25:53 51°9.418 2°39.121 19.6806 0.067488 0.342836 -2.458615
2012-05-04 09:26:52 51°9.404 2°39.053 19.6787 0.067488 0.342902 -2.458615
2012-05-04 09:27:52 51°9.38 2°38.991 19.701 0.067488 0.342973 -2.458615
2012-05-04 09:28:52 51°9.348 2°38.937 19.6992 0.067488 0.343044 -2.458615
2012-05-04 09:29:52 51°9.316 2°38.882 19.713 0.067385 0.342572 -2.458615
2012-05-04 09:30:52 51°9.298 2°38.815 19.7193 0.067385 0.342644 -2.458615
2012-05-04 09:31:52 51°9.298 2°38.743 19.7309 0.067385 0.342709 -2.458615
2012-05-04 09:32:52 51°9.305 2°38.671 19.7296 0.067385 0.342781 -2.458615
2012-05-04 09:33:53 51°9.312 2°38.597 19.7442 0.067282 0.342314 -2.458615
2012-05-04 09:34:53 51°9.321 2°38.525 19.7601 0.067282 0.34239 -2.458615
2012-05-04 09:35:52 51°9.329 2°38.454 19.7488 0.067282 0.342473 -2.458615
2012-05-04 09:36:52 51°9.336 2°38.382 19.7781 0.067282 0.342555 -2.458615
2012-05-04 09:37:52 51°9.339 2°38.31 19.7883 0.067282 0.342632 -2.458615
2012-05-04 09:38:52 51°9.342 2°38.238 19.7947 0.067282 0.34272 -2.458615
2012-05-04 09:39:52 51°9.349 2°38.166 19.7794 0.067179 0.342269 -2.458615
2012-05-04 09:40:53 51°9.356 2°38.092 19.8204 0.067179 0.342335 -2.458615
2012-05-04 09:41:52 51°9.36 2°38.019 19.8174 0.067179 0.342412 -2.458615
2012-05-04 09:42:52 51°9.363 2°37.944 19.8339 0.067179 0.342478 -2.458615
2012-05-04 09:43:52 51°9.367 2°37.869 19.8257 0.067179 0.342549 -2.458615
2012-05-04 09:44:52 51°9.391 2°37.805 19.8391 0.067179 0.342621 -2.458615
2012-05-04 09:45:52 51°9.436 2°37.773 19.856 0.067077 0.342158 -2.458615
2012-05-04 09:46:52 51°9.495 2°37.781 19.869 0.067077 0.34223 -2.458615
2012-05-04 09:47:52 51°9.559 2°37.815 19.8785 0.067077 0.342318 -2.458615
2012-05-04 09:48:53 51°9.624 2°37.887 19.8861 0.067077 0.342406 -2.458615
2012-05-04 09:49:52 51°9.664 2°37.967 19.9 0.067077 0.342488 -2.458615
2012-05-04 09:50:53 51°9.693 2°38.045 19.9072 0.066974 0.34202 -2.458615
2012-05-04 09:51:52 51°9.727 2°38.114 19.9146 0.066974 0.342091 -2.458615
2012-05-04 09:52:53 51°9.781 2°38.107 19.9229 0.066974 0.34213 -2.458615
2012-05-04 09:53:53 51°9.763 2°38.011 19.8943 0.066974 0.342152 -2.458615
2012-05-04 09:54:52 51°9.715 2°37.782 19.9529 0.066974 0.34224 -2.458615
2012-05-04 09:55:53 51°9.648 2°37.523 19.9297 0.066974 0.342345 -2.458615
2012-05-04 09:56:52 51°9.575 2°37.277 19.9465 0.066974 0.342433 -2.458615
2012-05-04 09:57:52 51°9.506 2°37.025 19.9524 0.066871 0.341986 -2.458615
2012-05-04 09:58:52 51°9.457 2°36.762 19.9735 0.066871 0.342091 -2.458615
2012-05-04 09:59:53 51°9.405 2°36.496 19.9795 0.066871 0.34219 -2.458615
2012-05-04 10:00:52 51°9.352 2°36.24 19.96 0.066871 0.342279 -2.458615
2012-05-04 10:01:52 51°9.285 2°35.988 19.9785 0.066871 0.342373 -2.458615
2012-05-04 10:02:52 51°9.219 2°35.733 20.007 0.066768 0.341908 -2.458615
2012-05-04 10:03:52 51°9.167 2°35.553 20.0057 0.066768 0.341997 -2.458615
2012-05-04 10:04:52 51°9.144 2°35.471 19.9992 0.066768 0.342085 -2.458615
2012-05-04 10:05:52 51°9.176 2°35.4 20.0092 0.066768 0.342179 -2.458615
2012-05-04 10:06:52 51°9.239 2°35.38 20.0231 0.066665 0.341714 -2.458615
2012-05-04 10:07:52 51°9.306 2°35.365 20.034 0.066768 0.342329 -2.458615
2012-05-04 10:08:53 51°9.36 2°35.327 20.0393 0.066665 0.341858 -2.458615
2012-05-04 10:09:52 51°9.389 2°35.269 20.0402 0.066665 0.341914 -2.458615
2012-05-04 10:10:52 51°9.39 2°35.202 20.0497 0.066665 0.341991 -2.458615
2012-05-04 10:11:52 51°9.363 2°35.141 20.0494 0.066665 0.342069 -2.458615
2012-05-04 10:12:52 51°9.333 2°35.079 20.0682 0.066665 0.342168 -2.458615
2012-05-04 10:13:53 51°9.298 2°35.021 20.0659 0.066665 0.342268 -2.458615
2012-05-04 10:14:52 51°9.259 2°34.97 20.0741 0.066665 0.342374 -2.458615
2012-05-04 10:15:52 51°9.22 2°34.918 20.0788 0.066665 0.342474 -2.458615
2012-05-04 10:16:52 51°9.183 2°34.862 20.0853 0.066665 0.342546 -2.458615
2012-05-04 10:17:53 51°9.144 2°34.802 20.1039 0.066665 0.342613 -2.458615
2012-05-04 10:18:52 51°9.103 2°34.755 20.0854 0.066563 0.342136 -2.458615
2012-05-04 10:19:53 51°9.056 2°34.724 20.1149 0.066563 0.342186 -2.458615
2012-05-04 10:20:53 51°8.997 2°34.728 20.1156 0.066563 0.342247 -2.458615
2012-05-04 10:21:53 51°8.936 2°34.738 20.1259 0.066563 0.342291 -2.458615
2012-05-04 10:22:52 51°8.879 2°34.733 20.1266 0.066563 0.342369 -2.458615
2012-05-04 10:23:52 51°8.834 2°34.7 20.1353 0.066563 0.342442 -2.458615
2012-05-04 10:24:52 51°8.789 2°34.663 20.1375 0.066563 0.342508 -2.458615
2012-05-04 10:25:52 51°8.743 2°34.629 20.1417 0.066563 0.34257 -2.458615
2012-05-04 10:26:53 51°8.708 2°34.572 20.1524 0.066563 0.342648 -2.458615
2012-05-04 10:27:52 51°8.686 2°34.506 20.1496 0.066563 0.342704 -2.458615
2012-05-04 10:28:53 51°8.682 2°34.43 20.1606 0.066563 0.342771 -2.458615
2012-05-04 10:29:52 51°8.698 2°34.356 20.1649 0.066563 0.342838 -2.458615
2012-05-04 10:30:53 51°8.738 2°34.289 20.1709 0.066563 0.342905 -2.458615
2012-05-04 10:31:52 51°8.799 2°34.247 20.1817 0.066563 0.342966 -2.458615
2012-05-04 10:32:53 51°8.866 2°34.263 20.1864 0.066563 0.343033 -2.458615
2012-05-04 10:33:53 51°8.92 2°34.313 20.1904 0.066563 0.343117 -2.458615
2012-05-04 10:34:52 51°8.957 2°34.377 20.1955 0.06646 0.342633 -2.458615
2012-05-04 10:35:53 51°8.983 2°34.45 20.1998 0.06646 0.342706 -2.458615
2012-05-04 10:36:53 51°9.001 2°34.525 20.1973 0.06646 0.342762 -2.458615
2012-05-04 10:37:53 51°8.987 2°34.605 20.1948 0.06646 0.34284 -2.458615
2012-05-04 10:38:52 51°8.955 2°34.606 20.2076 0.06646 0.34289 -2.458615
2012-05-04 10:39:53 51°8.911 2°34.573 20.2124 0.06646 0.342958 -2.458615
2012-05-04 10:40:52 51°8.844 2°34.574 20.2037 0.06646 0.343014 -2.458615
2012-05-04 10:41:52 51°8.777 2°34.559 20.2168 0.06646 0.34307 -2.458615
2012-05-04 10:42:53 51°8.728 2°34.503 20.2137 0.06646 0.343131 -2.458615
2012-05-04 10:43:53 51°8.682 2°34.437 20.2251 0.06646 0.343182 -2.458615
2012-05-04 10:44:53 51°8.649 2°34.353 20.2365 0.06646 0.343221 -2.458615
2012-05-04 10:45:52 51°8.606 2°34.287 20.2223 0.06646 0.343272 -2.458615
2012-05-04 10:46:53 51°8.56 2°34.232 20.2361 0.06646 0.343311 -2.458615
2012-05-04 10:47:52 51°8.519 2°34.175 20.241 0.066357 0.342837 -2.458615
2012-05-04 10:48:52 51°8.483 2°34.11 20.2411 0.066357 0.342888 -2.458615
2012-05-04 10:49:52 51°8.452 2°34.039 20.2434 0.066357 0.342944 -2.458615
2012-05-04 10:50:53 51°8.421 2°33.967 20.248 0.066357 0.343 -2.458615
2012-05-04 10:51:53 51°8.388 2°33.897 20.2311 0.066357 0.343045 -2.458615
2012-05-04 10:52:52 51°8.362 2°33.823 20.2444 0.066357 0.343095 -2.458615
2012-05-04 10:53:52 51°8.34 2°33.742 20.2518 0.066357 0.343146 -2.458615
2012-05-04 10:54:52 51°8.322 2°33.659 20.255 0.066357 0.343196 -2.458615
2012-05-04 10:55:53 51°8.316 2°33.569 20.2574 0.066357 0.343253 -2.458615
2012-05-04 10:56:52 51°8.342 2°33.484 20.263 0.066357 0.343303 -2.458615
2012-05-04 10:57:52 51°8.395 2°33.417 20.266 0.066357 0.34336 -2.458615
2012-05-04 10:58:52 51°8.465 2°33.371 20.2629 0.066357 0.34341 -2.458615
2012-05-04 10:59:52 51°8.541 2°33.339 20.2715 0.066357 0.343461 -2.458615
2012-05-04 11:00:53 51°8.624 2°33.326 20.2686 0.066254 0.342975 -2.458615
2012-05-04 11:01:52 51°8.702 2°33.359 20.2727 0.066357 0.343585 -2.458615
2012-05-04 11:02:53 51°8.759 2°33.455 20.2787 0.066254 0.343104 -2.458615
2012-05-04 11:03:52 51°8.777 2°33.578 20.2885 0.066254 0.343161 -2.458615
2012-05-04 11:04:53 51°8.777 2°33.713 20.2816 0.066254 0.343228 -2.458615
2012-05-04 11:05:52 51°8.782 2°33.845 20.2852 0.066254 0.343285 -2.458615
2012-05-04 11:06:53 51°8.784 2°33.962 20.2897 0.066254 0.343341 -2.458615
2012-05-04 11:07:52 51°8.784 2°34.063 20.2994 0.066254 0.343403 -2.458615
2012-05-04 11:08:52 51°8.779 2°34.164 20.2915 0.066254 0.34346 -2.458615
2012-05-04 11:09:53 51°8.765 2°34.255 20.2918 0.066254 0.343527 -2.458615
2012-05-04 11:10:53 51°8.759 2°34.331 20.2925 0.066254 0.343578 -2.458615
2012-05-04 11:11:53 51°8.761 2°34.401 20.3003 0.066254 0.343618 -2.458615
2012-05-04 11:12:52 51°8.758 2°34.495 20.2997 0.066254 0.343663 -2.458615
2012-05-04 11:13:53 51°8.772 2°34.651 20.3016 0.066254 0.343725 -2.458615
2012-05-04 11:14:52 51°8.82 2°34.903 20.2912 0.066049 0.342678 -2.458615
2012-05-04 11:15:52 51°8.915 2°35.228 20.3035 0.066151 0.343306 -2.458615
2012-05-04 11:16:53 51°8.995 2°35.579 20.303 0.066151 0.343374 -2.458615
2012-05-04 11:17:53 51°9.062 2°35.929 20.3129 0.066151 0.343459 -2.458615
2012-05-04 11:18:52 51°9.148 2°36.263 20.3185 0.066151 0.343538 -2.458615
2012-05-04 11:19:53 51°9.232 2°36.608 20.318 0.066151 0.343606 -2.458615
2012-05-04 11:20:53 51°9.3 2°36.955 20.3207 0.066049 0.343124 -2.458615
2012-05-04 11:21:52 51°9.369 2°37.294 20.3258 0.066151 0.343736 -2.458615
2012-05-04 11:22:52 51°9.44 2°37.637 20.3328 0.066151 0.343793 -2.458615
2012-05-04 11:23:52 51°9.504 2°37.98 20.342 0.066151 0.343838 -2.458615
2012-05-04 11:24:52 51°9.573 2°38.321 20.3439 0.066151 0.343901 -2.458615
2012-05-04 11:25:52 51°9.656 2°38.653 20.3524 0.066254 0.344496 -2.458615
2012-05-04 11:26:53 51°9.723 2°39 20.3578 0.066151 0.344003 -2.458615
2012-05-04 11:27:52 51°9.78 2°39.341 20.3712 0.066151 0.34406 -2.458615
2012-05-04 11:28:52 51°9.852 2°39.68 20.3608 0.066151 0.344111 -2.458615
2012-05-04 11:29:53 51°9.922 2°40.026 20.3756 0.066151 0.344168 -2.458615
2012-05-04 11:30:52 51°9.991 2°40.362 20.3668 0.066151 0.34423 -2.458615
2012-05-04 11:31:53 51°10.074 2°40.701 20.3694 0.066151 0.344281 -2.458615
2012-05-04 11:32:52 51°10.135 2°41.038 20.3864 0.066151 0.344338 -2.458615
2012-05-04 11:33:52 51°10.204 2°41.375 20.3926 0.066151 0.344401 -2.458615
2012-05-04 11:34:53 51°10.271 2°41.717 20.3916 0.066151 0.344458 -2.458615
2012-05-04 11:35:53 51°10.35 2°42.045 20.3965 0.066151 0.344509 -2.458615
2012-05-04 11:36:53 51°10.452 2°42.359 20.3968 0.066151 0.34456 -2.458615
2012-05-04 11:37:52 51°10.534 2°42.678 20.3989 0.066151 0.344623 -2.458615
2012-05-04 11:38:53 51°10.616 2°43.009 20.4001 0.066049 0.344117 -2.458615
2012-05-04 11:39:52 51°10.714 2°43.315 20.406 0.066049 0.344163 -2.458615
2012-05-04 11:40:52 51°10.793 2°43.641 20.4228 0.066049 0.344214 -2.458615
2012-05-04 11:41:53 51°10.874 2°43.971 20.4134 0.066049 0.344271 -2.458615
2012-05-04 11:42:53 51°10.961 2°44.293 20.4226 0.066049 0.344322 -2.458615
2012-05-04 11:43:53 51°11.072 2°44.595 20.4189 0.066049 0.344368 -2.458615
2012-05-04 11:44:52 51°11.179 2°44.894 20.4315 0.066049 0.344425 -2.458615
2012-05-04 11:45:52 51°11.282 2°45.204 20.4269 0.066049 0.344482 -2.458615
2012-05-04 11:46:53 51°11.378 2°45.527 20.4326 0.066049 0.344534 -2.458615
2012-05-04 11:47:53 51°11.489 2°45.831 20.4433 0.066049 0.344591 -2.458615
2012-05-04 11:48:52 51°11.596 2°46.134 20.4489 0.066049 0.344636 -2.458615
2012-05-04 11:49:53 51°11.69 2°46.458 20.4486 0.066049 0.344694 -2.458615
2012-05-04 11:50:52 51°11.8 2°46.752 20.4359 0.065946 0.344192 -2.458615
2012-05-04 11:51:52 51°11.888 2°47.067 20.455 0.065946 0.344238 -2.458615
2012-05-04 11:52:52 51°11.962 2°47.394 20.4598 0.065946 0.344278 -2.458615
2012-05-04 11:53:53 51°12.049 2°47.721 20.4672 0.065946 0.34433 -2.458615
2012-05-04 11:54:53 51°12.15 2°48.032 20.4606 0.065946 0.344381 -2.458615
2012-05-04 11:55:52 51°12.239 2°48.345 20.4639 0.065946 0.344427 -2.458615
2012-05-04 11:56:52 51°12.327 2°48.668 20.4673 0.065946 0.344478 -2.458615
2012-05-04 11:57:52 51°12.406 2°48.997 20.4525 0.065946 0.344541 -2.458615
2012-05-04 11:58:53 51°12.507 2°49.316 20.474 0.065946 0.344576 -2.458615
2012-05-04 11:59:52 51°12.611 2°49.62 20.4886 0.065946 0.344627 -2.458615
2012-05-04 12:00:52 51°12.724 2°49.924 20.4889 0.065946 0.344684 -2.458615
2012-05-04 12:01:52 51°12.842 2°50.222 20.4825 0.065946 0.344742 -2.458615
2012-05-04 12:02:52 51°12.94 2°50.539 20.4948 0.065946 0.344788 -2.458615
2012-05-04 12:03:53 51°13.037 2°50.862 20.4964 0.065843 0.344297 -2.458615
2012-05-04 12:04:52 51°13.143 2°51.162 20.4976 0.065843 0.344349 -2.458615
2012-05-04 12:05:53 51°13.265 2°51.464 20.4976 0.065843 0.344394 -2.458615
2012-05-04 12:06:52 51°13.378 2°51.76 20.5024 0.065843 0.34444 -2.458615
2012-05-04 12:07:53 51°13.492 2°52.068 20.5068 0.065843 0.344492 -2.458615
2012-05-04 12:08:52 51°13.605 2°52.367 20.5072 0.065843 0.344538 -2.458615
2012-05-04 12:09:53 51°13.725 2°52.676 20.5182 0.065843 0.344584 -2.458615
2012-05-04 12:10:52 51°13.838 2°52.982 20.5197 0.065843 0.34463 -2.458615
2012-05-04 12:11:53 51°13.956 2°53.294 20.5248 0.065843 0.344681 -2.458615
2012-05-04 12:12:52 51°14.076 2°53.59 20.525 0.065843 0.344733 -2.458615
2012-05-04 12:13:52 51°14.206 2°53.882 20.5345 0.065843 0.344779 -2.458615
2012-05-04 12:14:53 51°14.349 2°54.166 20.5258 0.065843 0.344831 -2.458615
2012-05-04 12:15:52 51°14.486 2°54.444 20.5272 0.06574 0.344328 -2.458615
2012-05-04 12:16:53 51°14.62 2°54.739 20.5207 0.065843 0.344928 -2.458615
2012-05-04 12:17:52 51°14.537 2°54.995 20.5433 0.065843 0.344997 -2.458615
2012-05-04 12:18:56 51°14.366 2°55.181 20.5353 0.06574 0.344512 -2.458615
2012-05-04 12:19:56 51°14.218 2°55.33 20.5427 0.06574 0.34454 -2.458615
2012-05-04 12:20:56 51°14.077 2°55.444 20.5477 0.06574 0.344598 -2.458615
2012-05-04 12:21:56 51°13.954 2°55.535 20.5526 0.06574 0.344644 -2.458615
2012-05-04 12:22:56 51°13.845 2°55.616 15.346 0.06574 0.34469 -2.458615
2012-05-04 12:23:56 51°13.759 2°55.712 16.0582 0.06574 0.344742 -2.458615
2012-05-04 12:24:56 51°13.696 2°55.822 16.6931 0.06574 0.344782 -2.458615
2012-05-04 12:25:56 51°13.653 2°55.931 16.1379 0.06574 0.344828 -2.458615
2012-05-04 12:26:56 51°13.637 2°56.008 16.3954 0.06574 0.34488 -2.458615
2012-05-04 12:27:56 51°13.636 2°56.018 16.5574 0.06574 0.34492 -2.458615